<?xml version="1.0" encoding="utf-8"?>
<gpx xmlns:xsi="http://www.w3.org/2001/XMLSchema-instance" xmlns:xsd="http://www.w3.org/2001/XMLSchema" version="1.1" creator="Shapelink.com" xmlns="http://www.topografix.com/GPX/1/1" xmlns:gpxtpx="http://www.garmin.com/xmlschemas/TrackPointExtension/v1">
  <metadata>
    <name>Övrigt 5.41 km, 2019-08-02</name>
    <desc></desc>
    <author><name>Marian Moron</name></author> 
    <time>2019-08-02T13:48:07Z</time>
  </metadata>
  <trk>
    <name>Övrigt 5.41 km, 2019-08-02</name>
    <trkseg>
      <trkpt lat="54.539618409741" lon="16.543663729549">
        <ele>11.8</ele>
        <time>2019-08-02T13:48:07Z</time>
      </trkpt>
      <trkpt lat="54.539528220497" lon="16.542933414602">
        <ele>15.6</ele>
        <time>2019-08-02T13:49:03Z</time>
      </trkpt>
      <trkpt lat="54.539534171646" lon="16.542897875346">
        <ele>15.4</ele>
        <time>2019-08-02T13:49:22Z</time>
      </trkpt>
      <trkpt lat="54.539542385908" lon="16.542612471651">
        <ele>15.2</ele>
        <time>2019-08-02T13:50:11Z</time>
      </trkpt>
      <trkpt lat="54.539537356768" lon="16.542516331258">
        <ele>15.4</ele>
        <time>2019-08-02T13:50:53Z</time>
      </trkpt>
      <trkpt lat="54.539573734214" lon="16.542439720692">
        <ele>15.6</ele>
        <time>2019-08-02T13:51:02Z</time>
      </trkpt>
      <trkpt lat="54.539689572072" lon="16.542248864829">
        <ele>16.2</ele>
        <time>2019-08-02T13:51:41Z</time>
      </trkpt>
      <trkpt lat="54.539740701662" lon="16.542115592619">
        <ele>16.4</ele>
        <time>2019-08-02T13:51:59Z</time>
      </trkpt>
      <trkpt lat="54.539988386807" lon="16.541567667816">
        <ele>16.8</ele>
        <time>2019-08-02T13:52:48Z</time>
      </trkpt>
      <trkpt lat="54.540032978515" lon="16.54096383574">
        <ele>11.4</ele>
        <time>2019-08-02T13:54:31Z</time>
      </trkpt>
      <trkpt lat="54.540001630209" lon="16.540837017593">
        <ele>10.6</ele>
        <time>2019-08-02T13:55:11Z</time>
      </trkpt>
      <trkpt lat="54.540024093701" lon="16.540837604326">
        <ele>15.6</ele>
        <time>2019-08-02T13:56:24Z</time>
      </trkpt>
      <trkpt lat="54.540060303509" lon="16.540872640668">
        <ele>13.2</ele>
        <time>2019-08-02T13:56:31Z</time>
      </trkpt>
      <trkpt lat="54.540102799742" lon="16.540835760308">
        <ele>11.4</ele>
        <time>2019-08-02T13:56:41Z</time>
      </trkpt>
      <trkpt lat="54.54016583163" lon="16.540777589922">
        <ele>7.2</ele>
        <time>2019-08-02T13:56:50Z</time>
      </trkpt>
      <trkpt lat="54.540259289815" lon="16.540967356138">
        <ele>8.4</ele>
        <time>2019-08-02T13:57:24Z</time>
      </trkpt>
      <trkpt lat="54.540193072805" lon="16.541136754337">
        <ele>10</ele>
        <time>2019-08-02T13:58:10Z</time>
      </trkpt>
      <trkpt lat="54.540231378088" lon="16.541395168314">
        <ele>13.8</ele>
        <time>2019-08-02T13:58:45Z</time>
      </trkpt>
      <trkpt lat="54.540213776098" lon="16.541322078146">
        <ele>12.6</ele>
        <time>2019-08-02T13:59:15Z</time>
      </trkpt>
      <trkpt lat="54.540209501329" lon="16.541259968267">
        <ele>12.6</ele>
        <time>2019-08-02T13:59:19Z</time>
      </trkpt>
      <trkpt lat="54.540203885456" lon="16.541179921122">
        <ele>11.6</ele>
        <time>2019-08-02T13:59:24Z</time>
      </trkpt>
      <trkpt lat="54.540258367806" lon="16.540974145477">
        <ele>10.6</ele>
        <time>2019-08-02T13:59:39Z</time>
      </trkpt>
      <trkpt lat="54.540317460201" lon="16.540894182151">
        <ele>10</ele>
        <time>2019-08-02T14:00:05Z</time>
      </trkpt>
      <trkpt lat="54.540296673089" lon="16.540916226548">
        <ele>11.4</ele>
        <time>2019-08-02T14:00:34Z</time>
      </trkpt>
      <trkpt lat="54.540309748853" lon="16.540771554954">
        <ele>14.8</ele>
        <time>2019-08-02T14:01:18Z</time>
      </trkpt>
      <trkpt lat="54.540417875363" lon="16.540583968032">
        <ele>9.8</ele>
        <time>2019-08-02T14:06:36Z</time>
      </trkpt>
      <trkpt lat="54.540473112084" lon="16.540563516196">
        <ele>9.4</ele>
        <time>2019-08-02T14:06:59Z</time>
      </trkpt>
      <trkpt lat="54.540480907251" lon="16.540525210913">
        <ele>12</ele>
        <time>2019-08-02T14:07:58Z</time>
      </trkpt>
      <trkpt lat="54.540670170553" lon="16.540410881797">
        <ele>6.2</ele>
        <time>2019-08-02T14:11:22Z</time>
      </trkpt>
      <trkpt lat="54.540666063422" lon="16.540383556803">
        <ele>10</ele>
        <time>2019-08-02T14:12:21Z</time>
      </trkpt>
      <trkpt lat="54.540773435561" lon="16.540381042233">
        <ele>16.6</ele>
        <time>2019-08-02T14:12:39Z</time>
      </trkpt>
      <trkpt lat="54.540985832907" lon="16.540009221149">
        <ele>14.6</ele>
        <time>2019-08-02T14:13:48Z</time>
      </trkpt>
      <trkpt lat="54.54136444333" lon="16.539793890138">
        <ele>12.4</ele>
        <time>2019-08-02T14:14:45Z</time>
      </trkpt>
      <trkpt lat="54.54143988043" lon="16.539707472749">
        <ele>5</ele>
        <time>2019-08-02T14:15:24Z</time>
      </trkpt>
      <trkpt lat="54.54145329147" lon="16.539574451996">
        <ele>3.4</ele>
        <time>2019-08-02T14:15:33Z</time>
      </trkpt>
      <trkpt lat="54.541450525443" lon="16.539520975474">
        <ele>2</ele>
        <time>2019-08-02T14:15:45Z</time>
      </trkpt>
      <trkpt lat="54.541418338947" lon="16.539588868864">
        <ele>1.8</ele>
        <time>2019-08-02T14:15:51Z</time>
      </trkpt>
      <trkpt lat="54.541379866026" lon="16.539698587935">
        <ele>1.2</ele>
        <time>2019-08-02T14:16:01Z</time>
      </trkpt>
      <trkpt lat="54.540980384672" lon="16.540032103736">
        <ele>5.8</ele>
        <time>2019-08-02T14:16:52Z</time>
      </trkpt>
      <trkpt lat="54.540869324497" lon="16.540163951023">
        <ele>7.6</ele>
        <time>2019-08-02T14:17:04Z</time>
      </trkpt>
      <trkpt lat="54.540757845227" lon="16.54025556519">
        <ele>9.8</ele>
        <time>2019-08-02T14:17:20Z</time>
      </trkpt>
      <trkpt lat="54.540824984246" lon="16.540338378362">
        <ele>8.2</ele>
        <time>2019-08-02T14:18:15Z</time>
      </trkpt>
      <trkpt lat="54.541016343023" lon="16.540694692931">
        <ele>11.4</ele>
        <time>2019-08-02T14:18:49Z</time>
      </trkpt>
      <trkpt lat="54.541028077683" lon="16.540720341545">
        <ele>11.2</ele>
        <time>2019-08-02T14:18:51Z</time>
      </trkpt>
      <trkpt lat="54.541062611111" lon="16.540891416124">
        <ele>8</ele>
        <time>2019-08-02T14:19:01Z</time>
      </trkpt>
      <trkpt lat="54.541067807889" lon="16.540997111883">
        <ele>7.2</ele>
        <time>2019-08-02T14:19:08Z</time>
      </trkpt>
      <trkpt lat="54.541083230585" lon="16.541105322212">
        <ele>6.8</ele>
        <time>2019-08-02T14:19:15Z</time>
      </trkpt>
      <trkpt lat="54.541087589173" lon="16.541132395749">
        <ele>7</ele>
        <time>2019-08-02T14:19:17Z</time>
      </trkpt>
      <trkpt lat="54.541094210874" lon="16.541272205841">
        <ele>7.6</ele>
        <time>2019-08-02T14:19:26Z</time>
      </trkpt>
      <trkpt lat="54.541099826747" lon="16.541296429532">
        <ele>7.4</ele>
        <time>2019-08-02T14:19:28Z</time>
      </trkpt>
      <trkpt lat="54.541109717389" lon="16.54135946142">
        <ele>7.4</ele>
        <time>2019-08-02T14:19:33Z</time>
      </trkpt>
      <trkpt lat="54.541093875598" lon="16.541349486959">
        <ele>8.6</ele>
        <time>2019-08-02T14:20:31Z</time>
      </trkpt>
      <trkpt lat="54.541078704359" lon="16.541226440667">
        <ele>8.6</ele>
        <time>2019-08-02T14:20:39Z</time>
      </trkpt>
      <trkpt lat="54.541062024378" lon="16.541108339696">
        <ele>8.8</ele>
        <time>2019-08-02T14:20:48Z</time>
      </trkpt>
      <trkpt lat="54.541084404051" lon="16.540919746946">
        <ele>6</ele>
        <time>2019-08-02T14:21:28Z</time>
      </trkpt>
      <trkpt lat="54.541084068775" lon="16.540922010059">
        <ele>5.6</ele>
        <time>2019-08-02T14:21:31Z</time>
      </trkpt>
      <trkpt lat="54.541075854513" lon="16.540897786368">
        <ele>2.4</ele>
        <time>2019-08-02T14:24:10Z</time>
      </trkpt>
      <trkpt lat="54.541076357427" lon="16.540898876015">
        <ele>0.4</ele>
        <time>2019-08-02T14:24:25Z</time>
      </trkpt>
      <trkpt lat="54.541077363255" lon="16.540913963435">
        <ele>1</ele>
        <time>2019-08-02T14:24:38Z</time>
      </trkpt>
      <trkpt lat="54.541063281663" lon="16.540923518801">
        <ele>5.2</ele>
        <time>2019-08-02T14:28:49Z</time>
      </trkpt>
      <trkpt lat="54.541042997465" lon="16.540826456399">
        <ele>2.8</ele>
        <time>2019-08-02T14:28:56Z</time>
      </trkpt>
      <trkpt lat="54.540964207605" lon="16.540504088525">
        <ele>5.2</ele>
        <time>2019-08-02T14:29:24Z</time>
      </trkpt>
      <trkpt lat="54.540697579366" lon="16.540312059196">
        <ele>7.4</ele>
        <time>2019-08-02T14:30:12Z</time>
      </trkpt>
      <trkpt lat="54.54067628934" lon="16.540364697528">
        <ele>11.8</ele>
        <time>2019-08-02T14:30:58Z</time>
      </trkpt>
      <trkpt lat="54.540689951837" lon="16.540378024749">
        <ele>13.6</ele>
        <time>2019-08-02T14:31:02Z</time>
      </trkpt>
      <trkpt lat="54.54073999178" lon="16.540368217926">
        <ele>26.2</ele>
        <time>2019-08-02T14:33:46Z</time>
      </trkpt>
      <trkpt lat="54.540913580929" lon="16.540384478812">
        <ele>14.8</ele>
        <time>2019-08-02T14:35:37Z</time>
      </trkpt>
      <trkpt lat="54.540920118811" lon="16.54053803522">
        <ele>14</ele>
        <time>2019-08-02T14:35:49Z</time>
      </trkpt>
      <trkpt lat="54.540949874556" lon="16.54065035268">
        <ele>13.4</ele>
        <time>2019-08-02T14:36:02Z</time>
      </trkpt>
      <trkpt lat="54.540978708292" lon="16.540756299896">
        <ele>11</ele>
        <time>2019-08-02T14:36:13Z</time>
      </trkpt>
      <trkpt lat="54.540983569794" lon="16.540704499754">
        <ele>10.2</ele>
        <time>2019-08-02T14:37:41Z</time>
      </trkpt>
      <trkpt lat="54.540952975859" lon="16.540754455878">
        <ele>15</ele>
        <time>2019-08-02T14:39:57Z</time>
      </trkpt>
      <trkpt lat="54.540976696636" lon="16.540792761161">
        <ele>16.4</ele>
        <time>2019-08-02T14:41:21Z</time>
      </trkpt>
      <trkpt lat="54.54100402163" lon="16.540725957418">
        <ele>10.2</ele>
        <time>2019-08-02T14:41:56Z</time>
      </trkpt>
      <trkpt lat="54.540963620872" lon="16.540498053557">
        <ele>5.6</ele>
        <time>2019-08-02T14:42:26Z</time>
      </trkpt>
      <trkpt lat="54.540917268965" lon="16.54028574003">
        <ele>5.6</ele>
        <time>2019-08-02T14:42:42Z</time>
      </trkpt>
      <trkpt lat="54.540929255082" lon="16.540162442281">
        <ele>6</ele>
        <time>2019-08-02T14:42:50Z</time>
      </trkpt>
      <trkpt lat="54.541196721511" lon="16.53980713354">
        <ele>12</ele>
        <time>2019-08-02T14:43:30Z</time>
      </trkpt>
      <trkpt lat="54.541309541885" lon="16.539725577653">
        <ele>12.8</ele>
        <time>2019-08-02T14:43:44Z</time>
      </trkpt>
      <trkpt lat="54.541281630158" lon="16.539618456971">
        <ele>8</ele>
        <time>2019-08-02T14:44:18Z</time>
      </trkpt>
      <trkpt lat="54.541347008978" lon="16.539590629063">
        <ele>8.8</ele>
        <time>2019-08-02T14:45:18Z</time>
      </trkpt>
      <trkpt lat="54.54169049924" lon="16.539140353395">
        <ele>4.2</ele>
        <time>2019-08-02T14:46:30Z</time>
      </trkpt>
      <trkpt lat="54.54170893942" lon="16.53908629014">
        <ele>4.8</ele>
        <time>2019-08-02T14:46:40Z</time>
      </trkpt>
      <trkpt lat="54.541723104831" lon="16.539080674267">
        <ele>5</ele>
        <time>2019-08-02T14:47:24Z</time>
      </trkpt>
      <trkpt lat="54.541726289953" lon="16.539078830249">
        <ele>5.8</ele>
        <time>2019-08-02T14:47:30Z</time>
      </trkpt>
      <trkpt lat="54.54178186195" lon="16.539115291514">
        <ele>13</ele>
        <time>2019-08-02T14:54:50Z</time>
      </trkpt>
      <trkpt lat="54.541775659344" lon="16.539107915442">
        <ele>13</ele>
        <time>2019-08-02T14:54:58Z</time>
      </trkpt>
      <trkpt lat="54.541738359889" lon="16.539062904639">
        <ele>7.8</ele>
        <time>2019-08-02T15:07:46Z</time>
      </trkpt>
      <trkpt lat="54.541732995473" lon="16.538928291325">
        <ele>2.6</ele>
        <time>2019-08-02T15:11:09Z</time>
      </trkpt>
      <trkpt lat="54.541914631246" lon="16.53879711459">
        <ele>3.2</ele>
        <time>2019-08-02T15:14:12Z</time>
      </trkpt>
      <trkpt lat="54.541887557709" lon="16.53865462229">
        <ele>2.6</ele>
        <time>2019-08-02T15:15:00Z</time>
      </trkpt>
      <trkpt lat="54.541903818595" lon="16.538656047213">
        <ele>2.4</ele>
        <time>2019-08-02T15:16:25Z</time>
      </trkpt>
      <trkpt lat="54.54185059353" lon="16.538382629635">
        <ele>0</ele>
        <time>2019-08-02T15:17:31Z</time>
      </trkpt>
      <trkpt lat="54.541851096444" lon="16.538358489763">
        <ele>1</ele>
        <time>2019-08-02T15:17:35Z</time>
      </trkpt>
      <trkpt lat="54.541884624044" lon="16.53830593525">
        <ele>1.4</ele>
        <time>2019-08-02T15:17:54Z</time>
      </trkpt>
      <trkpt lat="54.541894095591" lon="16.538339881945">
        <ele>1.2</ele>
        <time>2019-08-02T15:18:06Z</time>
      </trkpt>
      <trkpt lat="54.541807929659" lon="16.538628386943">
        <ele>3.8</ele>
        <time>2019-08-02T15:20:11Z</time>
      </trkpt>
      <trkpt lat="54.541822262708" lon="16.538643055268">
        <ele>4.4</ele>
        <time>2019-08-02T15:20:38Z</time>
      </trkpt>
      <trkpt lat="54.5418363443" lon="16.538689490994">
        <ele>4.6</ele>
        <time>2019-08-02T15:20:43Z</time>
      </trkpt>
      <trkpt lat="54.541830393151" lon="16.538718240911">
        <ele>4.4</ele>
        <time>2019-08-02T15:20:54Z</time>
      </trkpt>
      <trkpt lat="54.541811282419" lon="16.538707092984">
        <ele>3</ele>
        <time>2019-08-02T15:21:43Z</time>
      </trkpt>
      <trkpt lat="54.541842127811" lon="16.538885627454">
        <ele>3.4</ele>
        <time>2019-08-02T15:22:47Z</time>
      </trkpt>
      <trkpt lat="54.541763840865" lon="16.5389639144">
        <ele>3.8</ele>
        <time>2019-08-02T15:22:58Z</time>
      </trkpt>
      <trkpt lat="54.541532500425" lon="16.539314110182">
        <ele>5.6</ele>
        <time>2019-08-02T15:23:28Z</time>
      </trkpt>
      <trkpt lat="54.541415153825" lon="16.539479736526">
        <ele>7.4</ele>
        <time>2019-08-02T15:23:44Z</time>
      </trkpt>
      <trkpt lat="54.5410903552" lon="16.53999321172">
        <ele>7.8</ele>
        <time>2019-08-02T15:24:29Z</time>
      </trkpt>
      <trkpt lat="54.540705206895" lon="16.540404930648">
        <ele>7</ele>
        <time>2019-08-02T15:25:14Z</time>
      </trkpt>
      <trkpt lat="54.540542598035" lon="16.54060341404">
        <ele>7.8</ele>
        <time>2019-08-02T15:25:34Z</time>
      </trkpt>
      <trkpt lat="54.540474872283" lon="16.540675079285">
        <ele>8.2</ele>
        <time>2019-08-02T15:25:42Z</time>
      </trkpt>
      <trkpt lat="54.5404281851" lon="16.540743894684">
        <ele>8.6</ele>
        <time>2019-08-02T15:25:48Z</time>
      </trkpt>
      <trkpt lat="54.540171782779" lon="16.541326352915">
        <ele>11</ele>
        <time>2019-08-02T15:26:35Z</time>
      </trkpt>
      <trkpt lat="54.540170441675" lon="16.541338422851">
        <ele>11.4</ele>
        <time>2019-08-02T15:26:36Z</time>
      </trkpt>
      <trkpt lat="54.540161221585" lon="16.541347642941">
        <ele>11.2</ele>
        <time>2019-08-02T15:26:38Z</time>
      </trkpt>
      <trkpt lat="54.540128783632" lon="16.541384774758">
        <ele>11.4</ele>
        <time>2019-08-02T15:26:42Z</time>
      </trkpt>
      <trkpt lat="54.540057537482" lon="16.541507569593">
        <ele>10.2</ele>
        <time>2019-08-02T15:26:54Z</time>
      </trkpt>
      <trkpt lat="54.539759393299" lon="16.542047028677">
        <ele>14</ele>
        <time>2019-08-02T15:27:34Z</time>
      </trkpt>
      <trkpt lat="54.539502236607" lon="16.542570059237">
        <ele>10.4</ele>
        <time>2019-08-02T15:28:13Z</time>
      </trkpt>
      <trkpt lat="54.539481784771" lon="16.542661757223">
        <ele>10.4</ele>
        <time>2019-08-02T15:28:19Z</time>
      </trkpt>
      <trkpt lat="54.539573985671" lon="16.543413948929">
        <ele>9.2</ele>
        <time>2019-08-02T15:29:00Z</time>
      </trkpt>
      <trkpt lat="54.539576751698" lon="16.543641182238">
        <ele>16.2</ele>
        <time>2019-08-02T15:29:50Z</time>
      </trkpt>
      <trkpt lat="54.539569962359" lon="16.543618634927">
        <ele>16.6</ele>
        <time>2019-08-02T15:29:52Z</time>
      </trkpt>
      <trkpt lat="54.539517240208" lon="16.542843728272">
        <ele>11.8</ele>
        <time>2019-08-02T15:30:40Z</time>
      </trkpt>
      <trkpt lat="54.539500141132" lon="16.542578441137">
        <ele>9.8</ele>
        <time>2019-08-02T15:30:55Z</time>
      </trkpt>
      <trkpt lat="54.539513300715" lon="16.542534771438">
        <ele>11</ele>
        <time>2019-08-02T15:30:58Z</time>
      </trkpt>
      <trkpt lat="54.539550013437" lon="16.542324301929">
        <ele>13</ele>
        <time>2019-08-02T15:31:11Z</time>
      </trkpt>
      <trkpt lat="54.539592844946" lon="16.542235034694">
        <ele>12.6</ele>
        <time>2019-08-02T15:31:18Z</time>
      </trkpt>
      <trkpt lat="54.539621091949" lon="16.5419897803">
        <ele>10.4</ele>
        <time>2019-08-02T15:31:34Z</time>
      </trkpt>
      <trkpt lat="54.539270225615" lon="16.541609158221">
        <ele>12.2</ele>
        <time>2019-08-02T15:32:08Z</time>
      </trkpt>
      <trkpt lat="54.539264945018" lon="16.54156481797">
        <ele>13.2</ele>
        <time>2019-08-02T15:32:11Z</time>
      </trkpt>
      <trkpt lat="54.53929746679" lon="16.541569930929">
        <ele>14.4</ele>
        <time>2019-08-02T15:32:26Z</time>
      </trkpt>
      <trkpt lat="54.539479018744" lon="16.541752656349">
        <ele>14</ele>
        <time>2019-08-02T15:32:46Z</time>
      </trkpt>
      <trkpt lat="54.539704659492" lon="16.542018614036">
        <ele>13.2</ele>
        <time>2019-08-02T15:33:12Z</time>
      </trkpt>
      <trkpt lat="54.539738857644" lon="16.54198307478">
        <ele>12.8</ele>
        <time>2019-08-02T15:33:16Z</time>
      </trkpt>
      <trkpt lat="54.539748496829" lon="16.541931693733">
        <ele>12.4</ele>
        <time>2019-08-02T15:33:19Z</time>
      </trkpt>
      <trkpt lat="54.539809684699" lon="16.541743603897">
        <ele>9.8</ele>
        <time>2019-08-02T15:33:32Z</time>
      </trkpt>
      <trkpt lat="54.539879254469" lon="16.54158912548">
        <ele>10</ele>
        <time>2019-08-02T15:33:43Z</time>
      </trkpt>
      <trkpt lat="54.540106571597" lon="16.541045726903">
        <ele>9</ele>
        <time>2019-08-02T15:34:25Z</time>
      </trkpt>
      <trkpt lat="54.540336487114" lon="16.540754120602">
        <ele>6.8</ele>
        <time>2019-08-02T15:35:01Z</time>
      </trkpt>
      <trkpt lat="54.54040806854" lon="16.540621267487">
        <ele>7</ele>
        <time>2019-08-02T15:35:13Z</time>
      </trkpt>
      <trkpt lat="54.540481577803" lon="16.540525127094">
        <ele>8</ele>
        <time>2019-08-02T15:35:23Z</time>
      </trkpt>
      <trkpt lat="54.540506555865" lon="16.540496041901">
        <ele>8.8</ele>
        <time>2019-08-02T15:35:26Z</time>
      </trkpt>
      <trkpt lat="54.540717193012" lon="16.540224133065">
        <ele>10</ele>
        <time>2019-08-02T15:35:56Z</time>
      </trkpt>
      <trkpt lat="54.540903941744" lon="16.540047274975">
        <ele>10.8</ele>
        <time>2019-08-02T15:36:21Z</time>
      </trkpt>
      <trkpt lat="54.541063616939" lon="16.539812665594">
        <ele>8.4</ele>
        <time>2019-08-02T15:36:51Z</time>
      </trkpt>
      <trkpt lat="54.541353211584" lon="16.539509324633">
        <ele>7.8</ele>
        <time>2019-08-02T15:37:37Z</time>
      </trkpt>
      <trkpt lat="54.541442730276" lon="16.539384434323">
        <ele>5.2</ele>
        <time>2019-08-02T15:37:57Z</time>
      </trkpt>
      <trkpt lat="54.541647416274" lon="16.539032394523">
        <ele>6.6</ele>
        <time>2019-08-02T15:38:35Z</time>
      </trkpt>
      <trkpt lat="54.542016974245" lon="16.5386118746">
        <ele>3.4</ele>
        <time>2019-08-02T15:39:55Z</time>
      </trkpt>
      <trkpt lat="54.542106409118" lon="16.538508609592">
        <ele>0</ele>
        <time>2019-08-02T15:40:18Z</time>
      </trkpt>
      <trkpt lat="54.5421213289" lon="16.538470807223">
        <ele>0</ele>
        <time>2019-08-02T15:40:21Z</time>
      </trkpt>
      <trkpt lat="54.54213390175" lon="16.538433675406">
        <ele>0</ele>
        <time>2019-08-02T15:40:25Z</time>
      </trkpt>
      <trkpt lat="54.542144211487" lon="16.538327392914">
        <ele>5.2</ele>
        <time>2019-08-02T15:42:59Z</time>
      </trkpt>
      <trkpt lat="54.542234233093" lon="16.537924391162">
        <ele>0.4</ele>
        <time>2019-08-02T15:45:44Z</time>
      </trkpt>
      <trkpt lat="54.542262228639" lon="16.537965043377">
        <ele>2.2</ele>
        <time>2019-08-02T15:46:32Z</time>
      </trkpt>
      <trkpt lat="54.54221939713" lon="16.537983567376">
        <ele>0</ele>
        <time>2019-08-02T15:51:28Z</time>
      </trkpt>
      <trkpt lat="54.541887306252" lon="16.538230665788">
        <ele>2</ele>
        <time>2019-08-02T15:52:51Z</time>
      </trkpt>
      <trkpt lat="54.541708604144" lon="16.538436189976">
        <ele>7</ele>
        <time>2019-08-02T15:53:26Z</time>
      </trkpt>
      <trkpt lat="54.541646242808" lon="16.538531995093">
        <ele>7.4</ele>
        <time>2019-08-02T15:53:36Z</time>
      </trkpt>
      <trkpt lat="54.541664431531" lon="16.538712541219">
        <ele>6</ele>
        <time>2019-08-02T15:53:50Z</time>
      </trkpt>
      <trkpt lat="54.541736851147" lon="16.538902307435">
        <ele>10.4</ele>
        <time>2019-08-02T15:54:54Z</time>
      </trkpt>
      <trkpt lat="54.541652613052" lon="16.539022755338">
        <ele>13.4</ele>
        <time>2019-08-02T15:57:05Z</time>
      </trkpt>
      <trkpt lat="54.541644817885" lon="16.539122667586">
        <ele>13.8</ele>
        <time>2019-08-02T15:57:22Z</time>
      </trkpt>
      <trkpt lat="54.541570721889" lon="16.539200619256">
        <ele>17.6</ele>
        <time>2019-08-02T15:58:40Z</time>
      </trkpt>
      <trkpt lat="54.541566028025" lon="16.539195673935">
        <ele>21</ele>
        <time>2019-08-02T15:59:13Z</time>
      </trkpt>
      <trkpt lat="54.541545157094" lon="16.539145717811">
        <ele>19.2</ele>
        <time>2019-08-02T15:59:56Z</time>
      </trkpt>
      <trkpt lat="54.54154213961" lon="16.539180837972">
        <ele>16.2</ele>
        <time>2019-08-02T16:02:47Z</time>
      </trkpt>
      <trkpt lat="54.541533590072" lon="16.539233643942">
        <ele>13.8</ele>
        <time>2019-08-02T16:02:54Z</time>
      </trkpt>
      <trkpt lat="54.541428481046" lon="16.539102048112">
        <ele>14</ele>
        <time>2019-08-02T16:03:20Z</time>
      </trkpt>
      <trkpt lat="54.541409035038" lon="16.53891865214">
        <ele>14.6</ele>
        <time>2019-08-02T16:03:36Z</time>
      </trkpt>
      <trkpt lat="54.541356396706" lon="16.53841573814">
        <ele>16.2</ele>
        <time>2019-08-02T16:05:26Z</time>
      </trkpt>
      <trkpt lat="54.541356229068" lon="16.538365027645">
        <ele>17.6</ele>
        <time>2019-08-02T16:06:33Z</time>
      </trkpt>
      <trkpt lat="54.541366706443" lon="16.538373325726">
        <ele>17.6</ele>
        <time>2019-08-02T16:07:03Z</time>
      </trkpt>
      <trkpt lat="54.541356312887" lon="16.538305180879">
        <ele>14.6</ele>
        <time>2019-08-02T16:07:20Z</time>
      </trkpt>
      <trkpt lat="54.541341896019" lon="16.53827492222">
        <ele>14.8</ele>
        <time>2019-08-02T16:07:30Z</time>
      </trkpt>
      <trkpt lat="54.541350948471" lon="16.538276514781">
        <ele>15</ele>
        <time>2019-08-02T16:08:18Z</time>
      </trkpt>
      <trkpt lat="54.541375255981" lon="16.538350443139">
        <ele>14.6</ele>
        <time>2019-08-02T16:08:25Z</time>
      </trkpt>
      <trkpt lat="54.541395707817" lon="16.538365698197">
        <ele>15.8</ele>
        <time>2019-08-02T16:08:50Z</time>
      </trkpt>
      <trkpt lat="54.541371651764" lon="16.538443314591">
        <ele>15</ele>
        <time>2019-08-02T16:09:45Z</time>
      </trkpt>
      <trkpt lat="54.54134684134" lon="16.538361842523">
        <ele>15.6</ele>
        <time>2019-08-02T16:09:51Z</time>
      </trkpt>
      <trkpt lat="54.541332173015" lon="16.538198814568">
        <ele>15</ele>
        <time>2019-08-02T16:10:07Z</time>
      </trkpt>
      <trkpt lat="54.5413334303" lon="16.538064452711">
        <ele>15.4</ele>
        <time>2019-08-02T16:10:24Z</time>
      </trkpt>
      <trkpt lat="54.54133007754" lon="16.538066632005">
        <ele>17</ele>
        <time>2019-08-02T16:11:57Z</time>
      </trkpt>
      <trkpt lat="54.541237206088" lon="16.537655164534">
        <ele>13.2</ele>
        <time>2019-08-02T16:15:25Z</time>
      </trkpt>
      <trkpt lat="54.541152548898" lon="16.537523820161">
        <ele>14.4</ele>
        <time>2019-08-02T16:17:50Z</time>
      </trkpt>
      <trkpt lat="54.541184986851" lon="16.53747696534">
        <ele>15.2</ele>
        <time>2019-08-02T16:18:00Z</time>
      </trkpt>
      <trkpt lat="54.541202085927" lon="16.537446287586">
        <ele>15</ele>
        <time>2019-08-02T16:18:31Z</time>
      </trkpt>
      <trkpt lat="54.541198565529" lon="16.537454585667">
        <ele>16.2</ele>
        <time>2019-08-02T16:20:15Z</time>
      </trkpt>
      <trkpt lat="54.541196470054" lon="16.537462967567">
        <ele>16.2</ele>
        <time>2019-08-02T16:20:38Z</time>
      </trkpt>
      <trkpt lat="54.541281881615" lon="16.537465901232">
        <ele>17.4</ele>
        <time>2019-08-02T16:20:48Z</time>
      </trkpt>
      <trkpt lat="54.541278612674" lon="16.537475624236">
        <ele>18</ele>
        <time>2019-08-02T16:22:33Z</time>
      </trkpt>
      <trkpt lat="54.541276265742" lon="16.537472103838">
        <ele>18.2</ele>
        <time>2019-08-02T16:23:30Z</time>
      </trkpt>
      <trkpt lat="54.541277606846" lon="16.537454753305">
        <ele>17.4</ele>
        <time>2019-08-02T16:24:28Z</time>
      </trkpt>
      <trkpt lat="54.541196134778" lon="16.537422902085">
        <ele>15.6</ele>
        <time>2019-08-02T16:24:42Z</time>
      </trkpt>
      <trkpt lat="54.541187836697" lon="16.537392727245">
        <ele>15</ele>
        <time>2019-08-02T16:24:44Z</time>
      </trkpt>
      <trkpt lat="54.54115573402" lon="16.537179659347">
        <ele>13.4</ele>
        <time>2019-08-02T16:25:00Z</time>
      </trkpt>
      <trkpt lat="54.541141149514" lon="16.536936416609">
        <ele>16.4</ele>
        <time>2019-08-02T16:25:22Z</time>
      </trkpt>
      <trkpt lat="54.541156320753" lon="16.536769365342">
        <ele>16.8</ele>
        <time>2019-08-02T16:25:40Z</time>
      </trkpt>
      <trkpt lat="54.541126732646" lon="16.536712284603">
        <ele>16</ele>
        <time>2019-08-02T16:25:45Z</time>
      </trkpt>
      <trkpt lat="54.541071328287" lon="16.536499384343">
        <ele>15.6</ele>
        <time>2019-08-02T16:26:03Z</time>
      </trkpt>
      <trkpt lat="54.541019779602" lon="16.536339709148">
        <ele>17</ele>
        <time>2019-08-02T16:27:09Z</time>
      </trkpt>
      <trkpt lat="54.540931518195" lon="16.535641413059">
        <ele>15.2</ele>
        <time>2019-08-02T16:28:14Z</time>
      </trkpt>
      <trkpt lat="54.540910228169" lon="16.535414934121">
        <ele>20.4</ele>
        <time>2019-08-02T16:29:14Z</time>
      </trkpt>
      <trkpt lat="54.540883489908" lon="16.535098936491">
        <ele>20.8</ele>
        <time>2019-08-02T16:29:39Z</time>
      </trkpt>
      <trkpt lat="54.5408305163" lon="16.534799870299">
        <ele>17.4</ele>
        <time>2019-08-02T16:30:38Z</time>
      </trkpt>
      <trkpt lat="54.540766143308" lon="16.534436598753">
        <ele>18.6</ele>
        <time>2019-08-02T16:31:09Z</time>
      </trkpt>
      <trkpt lat="54.54050781315" lon="16.534242557768">
        <ele>14.4</ele>
        <time>2019-08-02T16:32:11Z</time>
      </trkpt>
      <trkpt lat="54.540460371596" lon="16.534278935214">
        <ele>16</ele>
        <time>2019-08-02T16:32:17Z</time>
      </trkpt>
      <trkpt lat="54.54025887072" lon="16.534370465562">
        <ele>18.2</ele>
        <time>2019-08-02T16:32:43Z</time>
      </trkpt>
      <trkpt lat="54.540116881334" lon="16.53445948134">
        <ele>18.2</ele>
        <time>2019-08-02T16:33:03Z</time>
      </trkpt>
      <trkpt lat="54.540033732886" lon="16.534510527111">
        <ele>18.6</ele>
        <time>2019-08-02T16:33:13Z</time>
      </trkpt>
      <trkpt lat="54.53965956487" lon="16.534668693564">
        <ele>17.6</ele>
        <time>2019-08-02T16:34:12Z</time>
      </trkpt>
      <trkpt lat="54.539574237128" lon="16.534731809271">
        <ele>16</ele>
        <time>2019-08-02T16:34:24Z</time>
      </trkpt>
      <trkpt lat="54.539510953783" lon="16.534775981884">
        <ele>15.8</ele>
        <time>2019-08-02T16:34:33Z</time>
      </trkpt>
      <trkpt lat="54.539489077024" lon="16.534783944689">
        <ele>16.4</ele>
        <time>2019-08-02T16:34:44Z</time>
      </trkpt>
      <trkpt lat="54.539459321279" lon="16.534801881955">
        <ele>16.8</ele>
        <time>2019-08-02T16:34:48Z</time>
      </trkpt>
      <trkpt lat="54.539393691002" lon="16.534835325736">
        <ele>16.8</ele>
        <time>2019-08-02T16:34:56Z</time>
      </trkpt>
      <trkpt lat="54.539311296925" lon="16.534867596051">
        <ele>16.2</ele>
        <time>2019-08-02T16:35:07Z</time>
      </trkpt>
      <trkpt lat="54.539171989747" lon="16.535025343409">
        <ele>16.8</ele>
        <time>2019-08-02T16:36:13Z</time>
      </trkpt>
      <trkpt lat="54.539221610595" lon="16.535232543977">
        <ele>17.6</ele>
        <time>2019-08-02T16:36:33Z</time>
      </trkpt>
      <trkpt lat="54.539240134594" lon="16.535431530283">
        <ele>19.6</ele>
        <time>2019-08-02T16:36:59Z</time>
      </trkpt>
      <trkpt lat="54.539286737958" lon="16.535713832675">
        <ele>17.2</ele>
        <time>2019-08-02T16:37:32Z</time>
      </trkpt>
      <trkpt lat="54.539411879725" lon="16.53632110133">
        <ele>18</ele>
        <time>2019-08-02T16:39:00Z</time>
      </trkpt>
      <trkpt lat="54.539414226657" lon="16.536351779084">
        <ele>18</ele>
        <time>2019-08-02T16:39:03Z</time>
      </trkpt>
      <trkpt lat="54.539427805335" lon="16.536447165106">
        <ele>18</ele>
        <time>2019-08-02T16:39:11Z</time>
      </trkpt>
      <trkpt lat="54.539478851106" lon="16.536691665129">
        <ele>18.4</ele>
        <time>2019-08-02T16:39:32Z</time>
      </trkpt>
      <trkpt lat="54.539506008462" lon="16.537025600025">
        <ele>16.8</ele>
        <time>2019-08-02T16:40:12Z</time>
      </trkpt>
      <trkpt lat="54.539557808604" lon="16.53734704589">
        <ele>18</ele>
        <time>2019-08-02T16:40:40Z</time>
      </trkpt>
      <trkpt lat="54.539644896545" lon="16.537699420966">
        <ele>19.4</ele>
        <time>2019-08-02T16:41:28Z</time>
      </trkpt>
      <trkpt lat="54.539721674749" lon="16.5380586692">
        <ele>21.4</ele>
        <time>2019-08-02T16:42:10Z</time>
      </trkpt>
      <trkpt lat="54.539745982259" lon="16.538179033284">
        <ele>21.2</ele>
        <time>2019-08-02T16:42:21Z</time>
      </trkpt>
      <trkpt lat="54.53981211545" lon="16.538488995946">
        <ele>20.6</ele>
        <time>2019-08-02T16:43:12Z</time>
      </trkpt>
      <trkpt lat="54.539868609456" lon="16.538923932737">
        <ele>20.6</ele>
        <time>2019-08-02T16:44:00Z</time>
      </trkpt>
      <trkpt lat="54.539995092327" lon="16.539643518852">
        <ele>18.6</ele>
        <time>2019-08-02T16:45:29Z</time>
      </trkpt>
      <trkpt lat="54.539997774535" lon="16.539663551593">
        <ele>18.8</ele>
        <time>2019-08-02T16:45:30Z</time>
      </trkpt>
      <trkpt lat="54.540018813104" lon="16.539769498809">
        <ele>19.4</ele>
        <time>2019-08-02T16:45:38Z</time>
      </trkpt>
      <trkpt lat="54.54004429408" lon="16.539904028304">
        <ele>21</ele>
        <time>2019-08-02T16:45:52Z</time>
      </trkpt>
      <trkpt lat="54.540071283798" lon="16.540020117619">
        <ele>22.6</ele>
        <time>2019-08-02T16:46:01Z</time>
      </trkpt>
      <trkpt lat="54.540139512464" lon="16.540397303119">
        <ele>22</ele>
        <time>2019-08-02T16:46:28Z</time>
      </trkpt>
      <trkpt lat="54.540150995667" lon="16.540526803474">
        <ele>22.2</ele>
        <time>2019-08-02T16:46:40Z</time>
      </trkpt>
      <trkpt lat="54.540165496354" lon="16.540572233372">
        <ele>21.8</ele>
        <time>2019-08-02T16:46:44Z</time>
      </trkpt>
      <trkpt lat="54.540167591829" lon="16.540665188643">
        <ele>20.8</ele>
        <time>2019-08-02T16:46:55Z</time>
      </trkpt>
      <trkpt lat="54.540092825281" lon="16.54076853747">
        <ele>22.6</ele>
        <time>2019-08-02T16:47:07Z</time>
      </trkpt>
      <trkpt lat="54.540106236321" lon="16.540957465496">
        <ele>22</ele>
        <time>2019-08-02T16:47:20Z</time>
      </trkpt>
      <trkpt lat="54.540112103651" lon="16.5412018817">
        <ele>20.2</ele>
        <time>2019-08-02T16:47:52Z</time>
      </trkpt>
      <trkpt lat="54.540131717297" lon="16.541324927992">
        <ele>23.2</ele>
        <time>2019-08-02T16:48:03Z</time>
      </trkpt>
      <trkpt lat="54.540147642907" lon="16.541420397833">
        <ele>24.8</ele>
        <time>2019-08-02T16:48:10Z</time>
      </trkpt>
      <trkpt lat="54.540122329569" lon="16.541486363386">
        <ele>25.6</ele>
        <time>2019-08-02T16:48:16Z</time>
      </trkpt>
      <trkpt lat="54.539916218648" lon="16.541896070658">
        <ele>22</ele>
        <time>2019-08-02T16:48:48Z</time>
      </trkpt>
      <trkpt lat="54.539761488774" lon="16.542077035879">
        <ele>19.4</ele>
        <time>2019-08-02T16:49:19Z</time>
      </trkpt>
      <trkpt lat="54.539761572593" lon="16.542147862934">
        <ele>18.4</ele>
        <time>2019-08-02T16:49:25Z</time>
      </trkpt>
      <trkpt lat="54.539753190693" lon="16.542413820621">
        <ele>14.2</ele>
        <time>2019-08-02T16:51:46Z</time>
      </trkpt>
      <trkpt lat="54.539656295929" lon="16.542455059569">
        <ele>29</ele>
        <time>2019-08-02T16:56:47Z</time>
      </trkpt>
      <trkpt lat="54.539199147103" lon="16.542271663597">
        <ele>0</ele>
        <time>2019-08-02T16:57:56Z</time>
      </trkpt>
      <trkpt lat="54.539711700288" lon="16.542486156418">
        <ele>0</ele>
        <time>2019-08-02T16:58:01Z</time>
      </trkpt>
      <trkpt lat="54.539706335872" lon="16.542220785464">
        <ele>14</ele>
        <time>2019-08-02T16:58:06Z</time>
      </trkpt>
      <trkpt lat="54.540024596615" lon="16.54189506483">
        <ele>23</ele>
        <time>2019-08-02T16:58:35Z</time>
      </trkpt>
      <trkpt lat="54.540063320993" lon="16.541894981011">
        <ele>22.2</ele>
        <time>2019-08-02T16:58:40Z</time>
      </trkpt>
      <trkpt lat="54.540077067309" lon="16.54196128184">
        <ele>22.4</ele>
        <time>2019-08-02T17:00:08Z</time>
      </trkpt>
      <trkpt lat="54.540062901898" lon="16.54186237542">
        <ele>21.6</ele>
        <time>2019-08-02T17:02:47Z</time>
      </trkpt>
      <trkpt lat="54.5400677634" lon="16.541729689943">
        <ele>20.2</ele>
        <time>2019-08-02T17:02:58Z</time>
      </trkpt>
      <trkpt lat="54.540084611019" lon="16.541534391673">
        <ele>19.4</ele>
        <time>2019-08-02T17:03:11Z</time>
      </trkpt>
      <trkpt lat="54.5401096729" lon="16.541467085016">
        <ele>19.2</ele>
        <time>2019-08-02T17:03:16Z</time>
      </trkpt>
      <trkpt lat="54.54015661154" lon="16.54144244223">
        <ele>18.8</ele>
        <time>2019-08-02T17:03:22Z</time>
      </trkpt>
      <trkpt lat="54.540192066977" lon="16.541273798402">
        <ele>15</ele>
        <time>2019-08-02T17:03:52Z</time>
      </trkpt>
      <trkpt lat="54.540202879628" lon="16.541271619108">
        <ele>15.6</ele>
        <time>2019-08-02T17:04:37Z</time>
      </trkpt>
      <trkpt lat="54.540181254326" lon="16.541209173953">
        <ele>17</ele>
        <time>2019-08-02T17:04:49Z</time>
      </trkpt>
      <trkpt lat="54.540179913222" lon="16.541195595275">
        <ele>17.8</ele>
        <time>2019-08-02T17:04:51Z</time>
      </trkpt>
      <trkpt lat="54.540174129711" lon="16.541056371916">
        <ele>19.8</ele>
        <time>2019-08-02T17:05:00Z</time>
      </trkpt>
      <trkpt lat="54.540204891284" lon="16.540970625079">
        <ele>17.8</ele>
        <time>2019-08-02T17:05:06Z</time>
      </trkpt>
      <trkpt lat="54.540230204622" lon="16.540926871561">
        <ele>17.4</ele>
        <time>2019-08-02T17:05:10Z</time>
      </trkpt>
      <trkpt lat="54.540315364726" lon="16.540811704255">
        <ele>16</ele>
        <time>2019-08-02T17:05:23Z</time>
      </trkpt>
      <trkpt lat="54.540404631961" lon="16.540904156612">
        <ele>10.4</ele>
        <time>2019-08-02T17:05:38Z</time>
      </trkpt>
      <trkpt lat="54.540466909478" lon="16.540733920223">
        <ele>9.8</ele>
        <time>2019-08-02T17:05:52Z</time>
      </trkpt>
      <trkpt lat="54.540528181167" lon="16.540635516717">
        <ele>9.4</ele>
        <time>2019-08-02T17:06:01Z</time>
      </trkpt>
      <trkpt lat="54.540569168658" lon="16.540576759598">
        <ele>9.8</ele>
        <time>2019-08-02T17:06:08Z</time>
      </trkpt>
      <trkpt lat="54.540617699859" lon="16.54044499613">
        <ele>18.8</ele>
        <time>2019-08-02T17:07:58Z</time>
      </trkpt>
      <trkpt lat="54.540585429544" lon="16.540435692221">
        <ele>15.2</ele>
        <time>2019-08-02T17:08:54Z</time>
      </trkpt>
      <trkpt lat="54.540567995192" lon="16.540542812903">
        <ele>20</ele>
        <time>2019-08-02T17:12:17Z</time>
      </trkpt>
      <trkpt lat="54.540508735159" lon="16.540600396556">
        <ele>16.6</ele>
        <time>2019-08-02T17:12:25Z</time>
      </trkpt>
      <trkpt lat="54.540360794624" lon="16.540796784473">
        <ele>16.6</ele>
        <time>2019-08-02T17:12:51Z</time>
      </trkpt>
      <trkpt lat="54.540142110853" lon="16.541425594611">
        <ele>15.2</ele>
        <time>2019-08-02T17:13:49Z</time>
      </trkpt>
      <trkpt lat="54.540113109479" lon="16.5414784844">
        <ele>15.2</ele>
        <time>2019-08-02T17:13:54Z</time>
      </trkpt>
      <trkpt lat="54.539944968565" lon="16.541794314392">
        <ele>14.8</ele>
        <time>2019-08-02T17:14:25Z</time>
      </trkpt>
      <trkpt lat="54.539855114597" lon="16.54195792908">
        <ele>14.8</ele>
        <time>2019-08-02T17:14:41Z</time>
      </trkpt>
      <trkpt lat="54.539807756862" lon="16.542023894633">
        <ele>14.4</ele>
        <time>2019-08-02T17:14:48Z</time>
      </trkpt>
      <trkpt lat="54.539718741084" lon="16.542062367554">
        <ele>14.6</ele>
        <time>2019-08-02T17:15:00Z</time>
      </trkpt>
      <trkpt lat="54.539630647315" lon="16.542294294727">
        <ele>16</ele>
        <time>2019-08-02T17:15:20Z</time>
      </trkpt>
      <trkpt lat="54.539609022013" lon="16.542347184516">
        <ele>15.8</ele>
        <time>2019-08-02T17:15:24Z</time>
      </trkpt>
      <trkpt lat="54.539511456697" lon="16.542724453835">
        <ele>16.2</ele>
        <time>2019-08-02T17:15:52Z</time>
      </trkpt>
      <trkpt lat="54.539532914361" lon="16.542842806263">
        <ele>16.2</ele>
        <time>2019-08-02T17:16:00Z</time>
      </trkpt>
      <trkpt lat="54.53960340614" lon="16.543615617443">
        <ele>14.8</ele>
        <time>2019-08-02T17:16:49Z</time>
      </trkpt>
      <trkpt lat="54.539588737815" lon="16.54354462275">
        <ele>15.2</ele>
        <time>2019-08-02T17:17:13Z</time>
      </trkpt>
      <trkpt lat="54.539581445562" lon="16.543509502589">
        <ele>15.4</ele>
        <time>2019-08-02T17:17:15Z</time>
      </trkpt>
      <trkpt lat="54.53945839927" lon="16.542839453503">
        <ele>18.2</ele>
        <time>2019-08-02T17:18:01Z</time>
      </trkpt>
      <trkpt lat="54.539453453949" lon="16.542783713868">
        <ele>18.4</ele>
        <time>2019-08-02T17:18:04Z</time>
      </trkpt>
      <trkpt lat="54.539442306022" lon="16.542733171011">
        <ele>18.6</ele>
        <time>2019-08-02T17:18:07Z</time>
      </trkpt>
      <trkpt lat="54.53956987854" lon="16.542350369638">
        <ele>17.4</ele>
        <time>2019-08-02T17:18:35Z</time>
      </trkpt>
      <trkpt lat="54.539666018933" lon="16.542186587312">
        <ele>16</ele>
        <time>2019-08-02T17:19:00Z</time>
      </trkpt>
      <trkpt lat="54.539681190172" lon="16.542134284256">
        <ele>16.4</ele>
        <time>2019-08-02T17:19:04Z</time>
      </trkpt>
      <trkpt lat="54.539936502846" lon="16.541501031711">
        <ele>17.4</ele>
        <time>2019-08-02T17:19:55Z</time>
      </trkpt>
      <trkpt lat="54.539956032673" lon="16.541486363386">
        <ele>17.6</ele>
        <time>2019-08-02T17:19:57Z</time>
      </trkpt>
      <trkpt lat="54.540005653521" lon="16.54134605038">
        <ele>17.8</ele>
        <time>2019-08-02T17:20:45Z</time>
      </trkpt>
      <trkpt lat="54.540012610498" lon="16.541322832517">
        <ele>17.6</ele>
        <time>2019-08-02T17:21:12Z</time>
      </trkpt>
      <trkpt lat="54.540051502514" lon="16.541298776464">
        <ele>18.2</ele>
        <time>2019-08-02T17:21:18Z</time>
      </trkpt>
      <trkpt lat="54.540190558235" lon="16.541133904491">
        <ele>16</ele>
        <time>2019-08-02T17:21:39Z</time>
      </trkpt>
      <trkpt lat="54.540235736676" lon="16.54102167085">
        <ele>15.8</ele>
        <time>2019-08-02T17:21:49Z</time>
      </trkpt>
      <trkpt lat="54.540410415472" lon="16.540739284639">
        <ele>18.8</ele>
        <time>2019-08-02T17:22:27Z</time>
      </trkpt>
      <trkpt lat="54.540441177045" lon="16.540711708188">
        <ele>20.4</ele>
        <time>2019-08-02T17:22:32Z</time>
      </trkpt>
      <trkpt lat="54.54047763831" lon="16.540683293547">
        <ele>21.2</ele>
        <time>2019-08-02T17:22:37Z</time>
      </trkpt>
      <trkpt lat="54.540503119286" lon="16.540633337423">
        <ele>21.6</ele>
        <time>2019-08-02T17:22:42Z</time>
      </trkpt>
      <trkpt lat="54.540602947715" lon="16.540494533159">
        <ele>17.8</ele>
        <time>2019-08-02T17:23:01Z</time>
      </trkpt>
      <trkpt lat="54.540727502749" lon="16.540311221006">
        <ele>10.4</ele>
        <time>2019-08-02T17:23:29Z</time>
      </trkpt>
      <trkpt lat="54.540774692846" lon="16.540255062276">
        <ele>10.6</ele>
        <time>2019-08-02T17:23:36Z</time>
      </trkpt>
      <trkpt lat="54.540832444137" lon="16.540177864977">
        <ele>8.8</ele>
        <time>2019-08-02T17:23:47Z</time>
      </trkpt>
      <trkpt lat="54.540882567899" lon="16.540142828635">
        <ele>10.4</ele>
        <time>2019-08-02T17:23:55Z</time>
      </trkpt>
      <trkpt lat="54.540981809595" lon="16.540034115392">
        <ele>10.4</ele>
        <time>2019-08-02T17:24:08Z</time>
      </trkpt>
      <trkpt lat="54.541025060199" lon="16.539978794852">
        <ele>9.6</ele>
        <time>2019-08-02T17:24:14Z</time>
      </trkpt>
      <trkpt lat="54.541042243094" lon="16.539942165949">
        <ele>8.8</ele>
        <time>2019-08-02T17:24:17Z</time>
      </trkpt>
      <trkpt lat="54.541106532267" lon="16.539861783528">
        <ele>7.6</ele>
        <time>2019-08-02T17:24:27Z</time>
      </trkpt>
      <trkpt lat="54.5411657923" lon="16.539790285921">
        <ele>8</ele>
        <time>2019-08-02T17:24:36Z</time>
      </trkpt>
      <trkpt lat="54.541203846126" lon="16.539732953725">
        <ele>7.4</ele>
        <time>2019-08-02T17:24:42Z</time>
      </trkpt>
      <trkpt lat="54.541258747571" lon="16.539673693692">
        <ele>7</ele>
        <time>2019-08-02T17:24:52Z</time>
      </trkpt>
      <trkpt lat="54.541302668727" lon="16.539627593242">
        <ele>5.2</ele>
        <time>2019-08-02T17:25:25Z</time>
      </trkpt>
      <trkpt lat="54.541518754109" lon="16.539336573674">
        <ele>9</ele>
        <time>2019-08-02T17:26:01Z</time>
      </trkpt>
      <trkpt lat="54.541595616132" lon="16.539322324444">
        <ele>10.6</ele>
        <time>2019-08-02T17:27:03Z</time>
      </trkpt>
      <trkpt lat="54.541628640818" lon="16.539307404662">
        <ele>12</ele>
        <time>2019-08-02T17:27:28Z</time>
      </trkpt>
      <trkpt lat="54.541633083225" lon="16.539166253466">
        <ele>15.2</ele>
        <time>2019-08-02T17:27:48Z</time>
      </trkpt>
      <trkpt lat="54.541636352166" lon="16.539166169647">
        <ele>18.8</ele>
        <time>2019-08-02T17:28:04Z</time>
      </trkpt>
      <trkpt lat="54.541587569508" lon="16.539261304212">
        <ele>15.6</ele>
        <time>2019-08-02T17:28:22Z</time>
      </trkpt>
      <trkpt lat="54.541561334161" lon="16.539313020535">
        <ele>16.8</ele>
        <time>2019-08-02T17:28:26Z</time>
      </trkpt>
      <trkpt lat="54.541464942311" lon="16.539322324444">
        <ele>6</ele>
        <time>2019-08-02T17:29:10Z</time>
      </trkpt>
      <trkpt lat="54.541417500757" lon="16.539181927619">
        <ele>7.6</ele>
        <time>2019-08-02T17:29:30Z</time>
      </trkpt>
      <trkpt lat="54.54144407138" lon="16.539292987794">
        <ele>7.4</ele>
        <time>2019-08-02T17:29:50Z</time>
      </trkpt>
      <trkpt lat="54.541459242619" lon="16.539497170878">
        <ele>8.4</ele>
        <time>2019-08-02T17:30:07Z</time>
      </trkpt>
      <trkpt lat="54.541532165149" lon="16.539677633185">
        <ele>12.4</ele>
        <time>2019-08-02T17:30:30Z</time>
      </trkpt>
      <trkpt lat="54.541495117151" lon="16.53975013662">
        <ele>15.6</ele>
        <time>2019-08-02T17:31:06Z</time>
      </trkpt>
    </trkseg>
  </trk>
</gpx>